Time;durP1;ratioP1;P1;durP2;ratioP2;P2;SDS_P1;SDS_P2;PMS_P1;PMS_P2;Temp;Humidity;BMP_temperature;BMP_pressure;BME280_temperature;BME280_humidity;BME280_pressure;Samples;Min_cycle;Max_cycle;Signal;HPM_P1;HPM_P2
2023/06/01 00:01:04;;;;;;;3.10;1.60;;;15.80;99.90;;;;;;4190804;28;20800;-75
2023/06/01 00:03:06;;;;;;;3.07;1.83;;;15.70;99.90;;;;;;4192114;28;20205;-75
2023/06/01 00:05:08;;;;;;;4.97;1.60;;;15.70;99.90;;;;;;4191325;28;20223;-75
2023/06/01 00:07:12;;;;;;;3.80;1.40;;;15.70;99.90;;;;;;4190395;28;20201;-75
2023/06/01 00:09:14;;;;;;;2.63;1.70;;;15.60;99.90;;;;;;4193199;28;20224;-75
2023/06/01 00:11:16;;;;;;;4.60;1.63;;;15.60;99.90;;;;;;4188577;28;20229;-74
2023/06/01 00:13:18;;;;;;;2.93;1.67;;;15.50;99.90;;;;;;4190198;28;20903;-75
2023/06/01 00:15:19;;;;;;;2.80;1.60;;;15.50;99.90;;;;;;4190253;28;20237;-75
2023/06/01 00:17:22;;;;;;;5.20;1.60;;;15.40;99.90;;;;;;4191479;28;20213;-75
2023/06/01 00:19:25;;;;;;;2.57;1.60;;;15.40;99.90;;;;;;4190225;28;20575;-74
2023/06/01 00:21:28;;;;;;;3.20;1.97;;;15.30;99.90;;;;;;4189558;28;20226;-75
2023/06/01 00:23:31;;;;;;;3.83;1.63;;;15.30;99.90;;;;;;4193031;28;20213;-75
2023/06/01 00:25:33;;;;;;;3.47;1.70;;;15.30;99.90;;;;;;4189552;28;20413;-75
2023/06/01 00:27:35;;;;;;;3.80;1.60;;;15.20;99.90;;;;;;4192426;28;21588;-75
2023/06/01 00:29:37;;;;;;;2.67;1.60;;;15.20;99.90;;;;;;4193382;28;20734;-75
2023/06/01 00:31:39;;;;;;;3.73;1.80;;;15.20;99.90;;;;;;4189886;28;20661;-75
2023/06/01 00:33:41;;;;;;;3.73;1.63;;;15.10;99.90;;;;;;4187962;28;20220;-75
2023/06/01 00:35:43;;;;;;;2.03;1.40;;;15.10;99.90;;;;;;4190559;28;20208;-75
2023/06/01 00:37:45;;;;;;;5.20;1.80;;;15.00;99.90;;;;;;4190371;28;20204;-75
2023/06/01 00:39:48;;;;;;;3.27;1.40;;;15.00;99.90;;;;;;4187967;28;20227;-74
2023/06/01 00:41:50;;;;;;;3.03;1.73;;;15.00;99.90;;;;;;4189642;28;20346;-75
2023/06/01 00:43:52;;;;;;;3.20;1.60;;;14.90;99.90;;;;;;4189675;28;20240;-74
2023/06/01 00:45:54;;;;;;;3.90;1.90;;;14.90;99.90;;;;;;4189705;28;20578;-75
2023/06/01 00:47:56;;;;;;;3.03;1.77;;;14.90;99.90;;;;;;4189144;28;20243;-75
2023/06/01 00:49:59;;;;;;;2.53;1.60;;;14.90;99.90;;;;;;4189742;28;20227;-75
2023/06/01 00:52:02;;;;;;;4.03;1.70;;;14.80;99.90;;;;;;4190824;28;20227;-74
2023/06/01 00:54:04;;;;;;;5.97;1.80;;;14.80;99.90;;;;;;4189108;28;20610;-75
2023/06/01 00:56:07;;;;;;;3.73;1.63;;;14.70;99.90;;;;;;4188634;28;20840;-74
2023/06/01 00:58:09;;;;;;;3.07;1.73;;;14.70;99.90;;;;;;4189397;28;20216;-75
2023/06/01 01:00:12;;;;;;;3.03;1.67;;;14.70;99.90;;;;;;4189893;28;20219;-75
2023/06/01 01:02:15;;;;;;;2.60;1.60;;;14.60;99.90;;;;;;4188302;28;20243;-75
2023/06/01 01:04:25;;;;;;;2.43;1.63;;;14.60;99.90;;;;;;4189579;28;20216;-75
2023/06/01 01:06:41;;;;;;;3.63;1.80;;;14.60;99.90;;;;;;4190389;28;21462;-74
2023/06/01 01:08:53;;;;;;;5.33;1.93;;;14.50;99.90;;;;;;4187776;28;20238;-75
2023/06/01 01:11:05;;;;;;;6.00;1.87;;;14.50;99.90;;;;;;4189555;28;20218;-75
2023/06/01 01:13:13;;;;;;;6.27;1.93;;;14.50;99.90;;;;;;4192188;28;20866;-75
2023/06/01 01:15:21;;;;;;;3.70;2.17;;;14.50;99.90;;;;;;4190014;28;20230;-76
2023/06/01 01:17:32;;;;;;;3.90;2.00;;;14.50;99.90;;;;;;4188252;28;20297;-76
2023/06/01 01:19:53;;;;;;;2.10;1.53;;;14.40;99.90;;;;;;4186858;28;20293;-76
2023/06/01 01:22:07;;;;;;;5.20;1.83;;;14.40;99.90;;;;;;4189697;28;20966;-75
2023/06/01 01:24:24;;;;;;;3.00;1.67;;;14.40;99.90;;;;;;4188983;28;20215;-76
2023/06/01 01:26:42;;;;;;;5.57;1.73;;;14.30;99.90;;;;;;4190057;28;20874;-74
2023/06/01 01:28:48;;;;;;;2.97;1.43;;;14.30;99.90;;;;;;4188996;28;20230;-75
2023/06/01 01:30:55;;;;;;;2.30;1.60;;;14.20;99.90;;;;;;4186483;28;20214;-75
2023/06/01 01:32:58;;;;;;;3.70;1.80;;;14.20;99.90;;;;;;4188123;28;20222;-75
2023/06/01 01:35:01;;;;;;;3.70;1.90;;;14.20;99.90;;;;;;4192534;28;20687;-75
2023/06/01 01:37:04;;;;;;;2.60;1.63;;;14.10;99.90;;;;;;4190098;28;20215;-75
2023/06/01 01:39:06;;;;;;;3.87;1.70;;;14.10;99.90;;;;;;4189420;28;20464;-74
2023/06/01 01:41:08;;;;;;;3.40;1.60;;;14.10;99.90;;;;;;4192707;28;20351;-74
2023/06/01 01:43:10;;;;;;;4.90;1.80;;;14.10;99.90;;;;;;4193540;28;20214;-74
2023/06/01 01:45:15;;;;;;;5.67;1.80;;;14.10;99.90;;;;;;4186931;28;20299;-75
2023/06/01 01:47:25;;;;;;;2.77;1.40;;;14.10;99.90;;;;;;4185440;28;20212;-75
2023/06/01 01:49:29;;;;;;;3.67;1.83;;;14.10;99.90;;;;;;4186326;28;20326;-74
2023/06/01 01:51:44;;;;;;;3.73;1.47;;;14.10;99.90;;;;;;4191283;28;20377;-75
2023/06/01 01:53:49;;;;;;;4.33;1.30;;;14.00;99.90;;;;;;4193291;28;20296;-75
2023/06/01 01:55:53;;;;;;;3.10;1.60;;;14.00;99.90;;;;;;4192687;28;20561;-75
2023/06/01 01:57:57;;;;;;;2.20;1.43;;;14.10;99.90;;;;;;4191643;28;20211;-74
2023/06/01 01:59:59;;;;;;;3.37;1.20;;;14.00;99.90;;;;;;4191930;28;20207;-75
2023/06/01 02:02:03;;;;;;;3.53;1.47;;;14.00;99.90;;;;;;4194255;28;20720;-73
2023/06/01 02:04:07;;;;;;;3.07;1.60;;;14.10;99.90;;;;;;4193346;28;20340;-74
2023/06/01 02:06:09;;;;;;;3.63;1.87;;;14.10;99.90;;;;;;4188936;28;20219;-74
2023/06/01 02:08:11;;;;;;;3.97;1.60;;;14.10;99.90;;;;;;4189967;28;20215;-74
2023/06/01 02:10:13;;;;;;;4.20;1.40;;;14.10;99.90;;;;;;4189353;28;20297;-74
2023/06/01 02:12:15;;;;;;;4.53;1.80;;;14.00;99.90;;;;;;4190592;28;20223;-74
2023/06/01 02:14:17;;;;;;;2.77;1.53;;;14.00;99.90;;;;;;4188880;28;21079;-75
2023/06/01 02:16:21;;;;;;;3.70;1.50;;;14.00;99.90;;;;;;4188510;28;20569;-75
2023/06/01 02:18:25;;;;;;;3.77;1.43;;;14.00;99.90;;;;;;4188583;28;20207;-74
2023/06/01 02:20:27;;;;;;;5.10;1.97;;;14.00;99.90;;;;;;4193655;28;20250;-75
2023/06/01 02:22:29;;;;;;;5.10;1.77;;;14.00;99.90;;;;;;4194743;28;20226;-75
2023/06/01 02:24:31;;;;;;;4.90;1.67;;;14.00;99.90;;;;;;4192659;28;20298;-75
2023/06/01 02:26:34;;;;;;;2.37;1.67;;;14.00;99.90;;;;;;4192860;28;20207;-74
2023/06/01 02:28:38;;;;;;;1.80;1.27;;;14.00;99.90;;;;;;4191285;28;20223;-75
2023/06/01 02:30:40;;;;;;;4.30;1.70;;;14.00;99.90;;;;;;4193422;28;20279;-75
2023/06/01 02:32:44;;;;;;;5.43;1.97;;;13.90;99.90;;;;;;4194001;28;20298;-75
2023/06/01 02:34:48;;;;;;;3.00;1.93;;;13.90;99.90;;;;;;4191571;28;20310;-74
2023/06/01 02:36:50;;;;;;;4.27;1.70;;;14.00;99.90;;;;;;4185664;28;20232;-75
2023/06/01 02:38:52;;;;;;;3.03;1.60;;;14.00;99.90;;;;;;4186688;28;20955;-75
2023/06/01 02:40:54;;;;;;;5.43;2.03;;;13.90;99.90;;;;;;4186856;28;21484;-75
2023/06/01 02:42:56;;;;;;;3.20;1.70;;;13.90;99.90;;;;;;4192347;28;20210;-75
2023/06/01 02:44:58;;;;;;;6.07;2.20;;;13.90;99.90;;;;;;4192222;28;20300;-75
2023/06/01 02:47:00;;;;;;;6.23;1.80;;;13.80;99.90;;;;;;4192328;28;20227;-75
2023/06/01 02:49:03;;;;;;;3.07;1.77;;;13.80;99.90;;;;;;4191811;28;20326;-74
2023/06/01 02:51:07;;;;;;;4.00;2.03;;;13.80;99.90;;;;;;4193585;28;20249;-75
2023/06/01 02:53:09;;;;;;;3.20;1.60;;;13.70;99.90;;;;;;4190877;28;20855;-75
2023/06/01 02:55:10;;;;;;;3.33;1.93;;;13.70;99.90;;;;;;4192191;28;20243;-75
2023/06/01 02:57:12;;;;;;;4.30;1.83;;;13.70;99.90;;;;;;4192728;28;20301;-75
2023/06/01 02:59:14;;;;;;;3.43;1.97;;;13.70;99.90;;;;;;4188927;28;20297;-75
2023/06/01 03:01:16;;;;;;;3.27;1.67;;;13.70;99.90;;;;;;4186022;28;20753;-74
2023/06/01 03:03:18;;;;;;;2.90;1.67;;;13.70;99.90;;;;;;4191610;28;20652;-75
2023/06/01 03:05:21;;;;;;;3.83;1.83;;;13.60;99.90;;;;;;4192035;28;20567;-75
2023/06/01 03:07:25;;;;;;;3.63;1.73;;;13.60;99.90;;;;;;4193127;28;20207;-75
2023/06/01 03:09:27;;;;;;;3.63;2.00;;;13.60;99.90;;;;;;4188383;28;20313;-74
2023/06/01 03:11:28;;;;;;;3.43;1.93;;;13.60;99.90;;;;;;4188466;28;20314;-74
2023/06/01 03:13:30;;;;;;;3.10;2.00;;;13.50;99.90;;;;;;4193468;28;20645;-75
2023/06/01 03:15:33;;;;;;;5.00;2.07;;;13.50;99.90;;;;;;4188239;28;20210;-74
2023/06/01 03:17:35;;;;;;;3.47;1.90;;;13.50;99.90;;;;;;4192435;28;20214;-75
2023/06/01 03:19:37;;;;;;;4.83;1.97;;;13.50;99.90;;;;;;4191737;28;20212;-75
2023/06/01 03:21:38;;;;;;;4.77;1.97;;;13.40;99.90;;;;;;4192634;28;20730;-75
2023/06/01 03:23:43;;;;;;;5.13;2.07;;;13.50;99.90;;;;;;4190533;28;20203;-75
2023/06/01 03:25:45;;;;;;;6.87;2.10;;;13.40;99.90;;;;;;4191745;28;20656;-75
2023/06/01 03:27:47;;;;;;;7.20;2.37;;;13.30;99.90;;;;;;4187405;28;20271;-75
2023/06/01 03:29:49;;;;;;;6.93;2.63;;;13.30;99.90;;;;;;4192885;28;20222;-75
2023/06/01 03:31:54;;;;;;;6.47;2.70;;;13.30;99.90;;;;;;4191822;28;20859;-74
2023/06/01 03:33:55;;;;;;;5.00;2.10;;;13.10;99.90;;;;;;4191824;28;20580;-75
2023/06/01 03:35:57;;;;;;;6.17;2.40;;;13.20;99.90;;;;;;4190957;28;20317;-75
2023/06/01 03:37:59;;;;;;;4.13;2.00;;;13.20;99.90;;;;;;4191996;28;20206;-75
2023/06/01 03:40:10;;;;;;;5.53;2.27;;;13.20;99.90;;;;;;4192499;28;20652;-75
2023/06/01 03:42:12;;;;;;;4.47;2.47;;;13.20;99.90;;;;;;4190578;28;20242;-74
2023/06/01 03:44:16;;;;;;;5.43;2.37;;;13.20;99.90;;;;;;4189914;28;20219;-75
2023/06/01 03:46:18;;;;;;;5.17;2.30;;;13.20;99.90;;;;;;4191406;28;20205;-75
2023/06/01 03:48:20;;;;;;;3.53;2.47;;;13.10;99.90;;;;;;4191750;28;20218;-75
2023/06/01 03:50:22;;;;;;;5.73;2.17;;;13.10;99.90;;;;;;4190100;28;20319;-75
2023/06/01 03:52:24;;;;;;;8.43;2.10;;;13.10;99.90;;;;;;4192602;28;20221;-75
2023/06/01 03:54:28;;;;;;;5.93;2.13;;;13.00;99.90;;;;;;4192689;28;20210;-75
2023/06/01 03:56:34;;;;;;;4.73;2.37;;;13.00;99.90;;;;;;4188526;28;20636;-75
2023/06/01 03:58:38;;;;;;;4.93;2.30;;;13.00;99.90;;;;;;4192915;28;20218;-75
2023/06/01 04:00:41;;;;;;;8.50;2.53;;;13.00;99.90;;;;;;4190550;28;20238;-75
2023/06/01 04:02:43;;;;;;;6.50;2.80;;;13.00;99.90;;;;;;4191241;28;20258;-75
2023/06/01 04:04:45;;;;;;;5.70;2.60;;;13.00;99.90;;;;;;4192665;28;20249;-75
2023/06/01 04:06:49;;;;;;;6.73;2.60;;;13.00;99.90;;;;;;4192452;28;20211;-75
2023/06/01 04:08:55;;;;;;;4.83;2.63;;;13.00;99.90;;;;;;4191068;28;20656;-75
2023/06/01 04:10:57;;;;;;;8.37;2.60;;;13.00;99.90;;;;;;4189771;28;20206;-75
2023/06/01 04:13:03;;;;;;;5.30;2.50;;;12.90;99.90;;;;;;4191850;28;20293;-74
2023/06/01 04:15:06;;;;;;;4.37;2.43;;;13.00;99.90;;;;;;4188193;28;21030;-76
2023/06/01 04:17:08;;;;;;;12.27;2.87;;;13.00;99.90;;;;;;4181870;28;20241;-74
2023/06/01 04:19:12;;;;;;;6.53;2.20;;;13.00;99.90;;;;;;4181849;28;20213;-74
2023/06/01 04:21:15;;;;;;;6.43;2.67;;;13.00;99.90;;;;;;4187433;28;20259;-74
2023/06/01 04:23:17;;;;;;;4.40;2.70;;;13.00;99.90;;;;;;4190362;28;20222;-75
2023/06/01 04:25:23;;;;;;;6.63;2.57;;;13.00;99.90;;;;;;4188679;28;20664;-74
2023/06/01 04:27:26;;;;;;;7.73;2.63;;;12.80;99.90;;;;;;4190221;28;20264;-74
2023/06/01 04:29:29;;;;;;;7.00;3.20;;;13.00;99.90;;;;;;4188938;28;20260;-75
2023/06/01 04:31:32;;;;;;;8.43;3.57;;;12.90;99.90;;;;;;4186896;28;20312;-74
2023/06/01 04:33:34;;;;;;;9.10;4.00;;;13.00;99.90;;;;;;4189804;28;20213;-75
2023/06/01 04:35:37;;;;;;;9.77;4.00;;;13.00;99.90;;;;;;4190716;28;20220;-74
2023/06/01 04:37:40;;;;;;;13.83;5.50;;;13.00;99.90;;;;;;4190562;28;20216;-75
2023/06/01 04:39:45;;;;;;;19.07;5.70;;;13.00;99.90;;;;;;4190213;28;20213;-75
2023/06/01 04:41:48;;;;;;;18.10;5.07;;;12.90;99.90;;;;;;4190285;28;21047;-74
2023/06/01 04:43:52;;;;;;;13.63;5.30;;;13.00;99.90;;;;;;4186572;28;20564;-74
2023/06/01 04:45:55;;;;;;;12.07;5.00;;;13.00;99.90;;;;;;4180791;28;20218;-74
2023/06/01 04:47:58;;;;;;;10.97;4.17;;;13.00;99.90;;;;;;4182184;28;20236;-75
2023/06/01 04:50:00;;;;;;;10.03;4.10;;;13.00;99.90;;;;;;4184559;28;20722;-74
2023/06/01 04:52:04;;;;;;;9.17;4.10;;;12.90;99.90;;;;;;4190053;28;20459;-75
2023/06/01 04:54:07;;;;;;;7.13;3.87;;;12.90;99.90;;;;;;4190048;28;20932;-74
2023/06/01 04:56:09;;;;;;;10.57;4.10;;;13.00;99.90;;;;;;4188540;28;20246;-75
2023/06/01 04:58:10;;;;;;;8.13;3.57;;;13.00;99.90;;;;;;4189231;28;20292;-78
2023/06/01 05:00:17;;;;;;;7.20;3.20;;;13.00;99.90;;;;;;4189354;28;20293;-76
2023/06/01 05:02:21;;;;;;;8.77;3.80;;;12.90;99.90;;;;;;4186940;28;20240;-75
2023/06/01 05:04:23;;;;;;;7.77;4.03;;;13.00;99.90;;;;;;4188145;28;20571;-75
2023/06/01 05:06:26;;;;;;;11.73;5.10;;;13.00;99.90;;;;;;4190405;28;20812;-75
2023/06/01 05:08:28;;;;;;;8.73;4.30;;;13.00;99.90;;;;;;4191299;28;20334;-72
2023/06/01 05:10:31;;;;;;;8.13;4.03;;;12.90;99.90;;;;;;4192764;28;20316;-73
2023/06/01 05:12:33;;;;;;;7.07;3.97;;;13.00;99.90;;;;;;4191610;28;20366;-75
2023/06/01 05:14:35;;;;;;;12.33;4.23;;;13.00;99.90;;;;;;4191457;28;20687;-76
2023/06/01 05:16:37;;;;;;;8.77;4.40;;;12.90;99.90;;;;;;4188293;28;20253;-75
2023/06/01 05:18:41;;;;;;;12.30;4.40;;;12.90;99.90;;;;;;4191383;28;20208;-75
2023/06/01 05:20:43;;;;;;;7.63;4.00;;;12.90;99.90;;;;;;4192042;28;20202;-76
2023/06/01 05:22:45;;;;;;;8.27;4.37;;;12.90;99.90;;;;;;4188255;28;20228;-75
2023/06/01 05:24:46;;;;;;;17.43;5.17;;;12.90;99.90;;;;;;4188874;28;20256;-75
2023/06/01 05:26:48;;;;;;;10.17;4.80;;;13.00;99.90;;;;;;4188954;28;20242;-76
2023/06/01 05:28:50;;;;;;;11.93;5.20;;;12.90;99.90;;;;;;4194355;28;20294;-76
2023/06/01 05:30:55;;;;;;;7.37;4.40;;;12.90;99.90;;;;;;4194469;28;20261;-76
2023/06/01 05:32:57;;;;;;;8.87;3.70;;;12.90;99.90;;;;;;4195058;28;20675;-76
2023/06/01 05:35:00;;;;;;;9.37;4.50;;;12.90;99.90;;;;;;4194254;28;20747;-76
2023/06/01 05:37:05;;;;;;;8.10;4.33;;;12.90;99.90;;;;;;4194646;28;20210;-76
2023/06/01 05:39:07;;;;;;;9.73;4.47;;;12.90;99.90;;;;;;4194788;28;20216;-76
2023/06/01 05:41:09;;;;;;;10.33;4.83;;;13.00;99.90;;;;;;4194555;28;20355;-76
2023/06/01 05:43:11;;;;;;;11.70;4.80;;;13.00;99.90;;;;;;4194680;28;20705;-75
2023/06/01 05:45:13;;;;;;;9.17;4.50;;;12.90;99.90;;;;;;4192734;28;20197;-76
2023/06/01 05:47:15;;;;;;;9.37;4.70;;;13.00;99.90;;;;;;4193944;28;20238;-76
2023/06/01 05:49:17;;;;;;;10.73;4.80;;;12.90;99.90;;;;;;4194638;28;20202;-76
2023/06/01 05:51:20;;;;;;;9.10;4.80;;;12.90;99.90;;;;;;4194409;28;20220;-75
2023/06/01 05:53:24;;;;;;;13.23;4.93;;;13.00;99.90;;;;;;4194171;28;20591;-76
2023/06/01 05:55:26;;;;;;;11.20;4.20;;;13.00;99.90;;;;;;4194010;28;20214;-76
2023/06/01 05:57:28;;;;;;;11.93;5.23;;;13.00;99.90;;;;;;4194802;28;20209;-76
2023/06/01 05:59:30;;;;;;;9.97;4.53;;;13.00;99.90;;;;;;4194309;28;20219;-76
2023/06/01 06:01:32;;;;;;;10.13;5.00;;;13.00;99.90;;;;;;4193315;28;20244;-75
2023/06/01 06:03:34;;;;;;;11.30;5.70;;;13.00;99.90;;;;;;4192991;28;20207;-76
2023/06/01 06:05:35;;;;;;;13.90;5.27;;;13.00;99.90;;;;;;4193548;28;20305;-75
2023/06/01 06:07:39;;;;;;;10.63;5.30;;;13.00;99.90;;;;;;4191449;28;20228;-75
2023/06/01 06:09:41;;;;;;;9.50;5.03;;;13.00;99.90;;;;;;4193397;28;20223;-75
2023/06/01 06:11:44;;;;;;;17.93;5.30;;;13.10;99.90;;;;;;4193634;28;20320;-74
2023/06/01 06:13:46;;;;;;;10.47;5.13;;;13.10;99.90;;;;;;4156633;28;20449;-74
2023/06/01 06:15:48;;;;;;;12.47;5.67;;;13.10;99.90;;;;;;4192435;28;20302;-75
2023/06/01 06:17:50;;;;;;;11.47;5.43;;;13.00;99.90;;;;;;4192941;28;20228;-75
2023/06/01 06:19:52;;;;;;;9.20;5.80;;;13.10;99.90;;;;;;4193798;28;20301;-75
2023/06/01 06:21:54;;;;;;;9.43;5.00;;;13.10;99.90;;;;;;4190459;28;20230;-75
2023/06/01 06:23:58;;;;;;;10.07;5.83;;;13.10;99.90;;;;;;4193905;28;20220;-75
2023/06/01 06:26:00;;;;;;;10.13;5.70;;;13.20;99.90;;;;;;4192282;28;20232;-74
2023/06/01 06:28:03;;;;;;;13.83;5.60;;;13.20;99.90;;;;;;4194430;28;20673;-75
2023/06/01 06:30:06;;;;;;;12.43;6.30;;;13.30;99.90;;;;;;4193281;28;20237;-75
2023/06/01 06:32:09;;;;;;;15.20;6.77;;;13.30;99.90;;;;;;4190662;28;20245;-75
2023/06/01 06:34:12;;;;;;;13.37;7.03;;;13.30;99.90;;;;;;4193684;28;20276;-75
2023/06/01 06:36:14;;;;;;;12.77;6.80;;;13.30;99.90;;;;;;4194312;28;20232;-75
2023/06/01 06:38:17;;;;;;;15.47;7.00;;;13.30;99.90;;;;;;4192130;28;20214;-75
2023/06/01 06:40:20;;;;;;;12.57;6.70;;;13.30;99.90;;;;;;4193142;28;20284;-75
2023/06/01 06:42:22;;;;;;;13.20;7.60;;;13.30;99.90;;;;;;4192168;28;20325;-75
2023/06/01 06:44:24;;;;;;;15.47;7.93;;;13.40;99.90;;;;;;4192553;28;20217;-75
2023/06/01 06:46:26;;;;;;;13.07;7.77;;;13.30;99.90;;;;;;4192965;28;20273;-75
2023/06/01 06:48:28;;;;;;;11.97;6.67;;;13.40;99.90;;;;;;4192183;28;20224;-75
2023/06/01 06:50:30;;;;;;;15.70;7.10;;;13.30;99.90;;;;;;4193187;28;20257;-75
2023/06/01 06:52:32;;;;;;;13.10;7.83;;;13.30;99.90;;;;;;4192831;28;20698;-75
2023/06/01 06:54:34;;;;;;;16.13;8.80;;;13.30;99.90;;;;;;4193619;28;20213;-75
2023/06/01 06:56:38;;;;;;;13.50;7.50;;;13.40;99.90;;;;;;4191907;28;20217;-74
2023/06/01 06:58:40;;;;;;;14.40;7.67;;;13.40;99.90;;;;;;4193384;28;20238;-74
2023/06/01 07:00:41;;;;;;;17.20;8.30;;;13.30;99.90;;;;;;4192689;28;20240;-75
2023/06/01 07:02:45;;;;;;;17.63;8.63;;;13.30;99.90;;;;;;4193655;28;20221;-75
2023/06/01 07:04:49;;;;;;;13.17;7.33;;;13.30;99.90;;;;;;4191584;28;20263;-75
2023/06/01 07:06:52;;;;;;;11.67;7.40;;;13.30;99.90;;;;;;4191186;28;20217;-75
2023/06/01 07:08:53;;;;;;;12.40;7.13;;;13.30;99.90;;;;;;4190125;28;20310;-75
2023/06/01 07:10:56;;;;;;;16.27;8.60;;;13.40;99.90;;;;;;4193277;28;20320;-75
2023/06/01 07:12:59;;;;;;;28.20;8.80;;;13.40;99.90;;;;;;4191140;28;20206;-75
2023/06/01 07:15:03;;;;;;;17.47;7.97;;;13.40;99.90;;;;;;4189162;28;20244;-75
2023/06/01 07:17:05;;;;;;;14.13;7.33;;;13.40;99.90;;;;;;4190318;28;20208;-75
2023/06/01 07:19:08;;;;;;;14.50;7.23;;;13.40;99.90;;;;;;4192504;28;20223;-75
2023/06/01 07:21:09;;;;;;;16.17;7.63;;;13.40;99.90;;;;;;4192152;28;20253;-75
2023/06/01 07:23:12;;;;;;;13.93;8.00;;;13.40;99.90;;;;;;4192850;28;20300;-75
2023/06/01 07:25:14;;;;;;;14.30;8.00;;;13.50;99.90;;;;;;4193420;28;20236;-75
2023/06/01 07:27:16;;;;;;;14.10;7.53;;;13.50;99.90;;;;;;4193748;28;20210;-75
2023/06/01 07:29:21;;;;;;;15.53;8.17;;;13.60;99.90;;;;;;4193895;28;20217;-75
2023/06/01 07:31:24;;;;;;;13.20;7.70;;;13.60;99.90;;;;;;4189742;28;20303;-75
2023/06/01 07:33:26;;;;;;;12.80;8.10;;;13.70;99.90;;;;;;4193002;28;20209;-75
2023/06/01 07:35:28;;;;;;;16.77;8.87;;;13.70;99.90;;;;;;4192811;28;20730;-75
2023/06/01 07:37:31;;;;;;;12.07;7.87;;;13.70;99.90;;;;;;4192629;28;20255;-75
2023/06/01 07:39:33;;;;;;;14.73;8.80;;;13.80;99.90;;;;;;4193150;28;20216;-75
2023/06/01 07:41:35;;;;;;;16.07;8.37;;;13.80;99.90;;;;;;4191890;28;20309;-75
2023/06/01 07:43:38;;;;;;;13.93;7.60;;;13.90;99.90;;;;;;4190648;28;20238;-75
2023/06/01 07:45:42;;;;;;;15.73;7.93;;;14.00;99.90;;;;;;4189733;28;20226;-75
2023/06/01 07:47:44;;;;;;;14.53;8.10;;;14.00;99.90;;;;;;4190776;28;20313;-75
2023/06/01 07:49:45;;;;;;;11.93;7.30;;;14.10;99.90;;;;;;4190116;28;20206;-74
2023/06/01 07:51:48;;;;;;;15.43;8.53;;;14.10;99.90;;;;;;4191671;28;20257;-75
2023/06/01 07:53:50;;;;;;;12.90;7.50;;;14.20;99.90;;;;;;4193167;28;20643;-75
2023/06/01 07:55:52;;;;;;;14.00;7.40;;;14.20;99.90;;;;;;4193134;28;20219;-75
2023/06/01 07:57:54;;;;;;;14.10;7.60;;;14.30;99.90;;;;;;4192219;28;20309;-75
2023/06/01 07:59:56;;;;;;;12.57;7.77;;;14.40;99.90;;;;;;4192894;28;20309;-75
2023/06/01 08:02:00;;;;;;;11.37;7.13;;;14.40;99.90;;;;;;4191299;28;20265;-75
2023/06/01 08:04:04;;;;;;;13.07;7.50;;;14.50;99.90;;;;;;4192829;28;20222;-75
2023/06/01 08:06:07;;;;;;;14.77;7.03;;;14.50;99.90;;;;;;4192327;28;20217;-74
2023/06/01 08:08:09;;;;;;;17.10;8.20;;;14.60;99.90;;;;;;4191410;28;20205;-74
2023/06/01 08:10:13;;;;;;;15.97;8.53;;;14.60;99.90;;;;;;4191522;28;20219;-75
2023/06/01 08:12:15;;;;;;;16.87;8.03;;;14.70;99.90;;;;;;4192278;28;20227;-74
2023/06/01 08:14:18;;;;;;;15.97;9.20;;;14.70;99.90;;;;;;4191310;28;20299;-73
2023/06/01 08:16:20;;;;;;;17.00;8.87;;;14.80;99.90;;;;;;4192094;28;20208;-74
2023/06/01 08:18:27;;;;;;;16.17;8.37;;;14.90;99.90;;;;;;4193602;28;20211;-75
2023/06/01 08:20:29;;;;;;;14.57;8.13;;;14.90;99.90;;;;;;4192515;28;20218;-74
2023/06/01 08:22:31;;;;;;;11.83;7.50;;;14.90;99.90;;;;;;4188150;28;20242;-74
2023/06/01 08:24:34;;;;;;;14.67;8.37;;;15.00;99.90;;;;;;4191005;28;20211;-73
2023/06/01 08:26:36;;;;;;;16.63;8.67;;;15.10;99.90;;;;;;4191635;28;20218;-74
2023/06/01 08:28:38;;;;;;;14.40;8.23;;;15.10;99.90;;;;;;4189998;28;20917;-74
2023/06/01 08:30:40;;;;;;;18.03;9.00;;;15.20;99.90;;;;;;4190758;28;20279;-74
2023/06/01 08:32:42;;;;;;;16.63;9.60;;;15.30;99.90;;;;;;4191867;28;20326;-74
2023/06/01 08:34:47;;;;;;;21.13;10.83;;;15.30;99.90;;;;;;4190955;28;20217;-74
2023/06/01 08:36:49;;;;;;;18.83;10.50;;;15.40;99.90;;;;;;4191592;28;20219;-74
2023/06/01 08:38:51;;;;;;;19.73;10.20;;;15.40;99.90;;;;;;4188794;28;20791;-74
2023/06/01 08:40:53;;;;;;;23.03;12.40;;;15.60;99.90;;;;;;4191320;28;20204;-75
2023/06/01 08:43:00;;;;;;;23.67;11.87;;;15.70;99.90;;;;;;4192543;28;20243;-75
2023/06/01 08:45:06;;;;;;;20.30;12.00;;;15.70;99.90;;;;;;4194883;28;20312;-74
2023/06/01 08:47:08;;;;;;;22.13;12.23;;;15.70;99.90;;;;;;4193456;28;20209;-74
2023/06/01 08:49:14;;;;;;;22.50;12.67;;;15.90;99.90;;;;;;4196538;28;20216;-74
2023/06/01 08:51:19;;;;;;;21.53;12.30;;;16.10;99.90;;;;;;4195356;28;20325;-75
2023/06/01 08:53:22;;;;;;;22.17;12.90;;;16.10;99.90;;;;;;4193369;28;20646;-73
2023/06/01 08:55:24;;;;;;;25.07;13.57;;;16.30;99.90;;;;;;4194376;28;20204;-75
2023/06/01 08:57:27;;;;;;;20.80;12.53;;;16.40;99.90;;;;;;4195513;28;20213;-74
2023/06/01 08:59:30;;;;;;;25.27;14.60;;;16.50;99.90;;;;;;4194872;28;20714;-74
2023/06/01 09:01:33;;;;;;;24.77;13.50;;;16.60;99.90;;;;;;4194697;28;20251;-74
2023/06/01 09:03:35;;;;;;;22.23;12.80;;;16.70;99.90;;;;;;4194981;28;20770;-75
2023/06/01 09:05:37;;;;;;;25.73;13.80;;;16.80;99.90;;;;;;4194919;28;20691;-75
2023/06/01 09:07:40;;;;;;;24.10;13.13;;;17.00;99.90;;;;;;4196191;28;20301;-75
2023/06/01 09:09:43;;;;;;;19.93;13.23;;;17.20;99.90;;;;;;4195630;28;20244;-75
2023/06/01 09:11:45;;;;;;;21.97;13.67;;;17.30;99.90;;;;;;4194896;28;20322;-75
2023/06/01 09:13:47;;;;;;;20.80;12.53;;;17.40;99.90;;;;;;4193373;28;20214;-74
2023/06/01 09:15:53;;;;;;;22.93;12.63;;;17.50;99.90;;;;;;4194229;28;20214;-75
2023/06/01 09:18:07;;;;;;;20.53;11.97;;;17.60;99.90;;;;;;4195923;28;20301;-74
2023/06/01 09:20:13;;;;;;;15.50;11.03;;;17.70;99.90;;;;;;4193331;28;20251;-75
2023/06/01 09:22:15;;;;;;;19.40;12.70;;;17.80;99.90;;;;;;4194854;28;20663;-75
2023/06/01 09:24:22;;;;;;;21.03;12.37;;;17.90;99.90;;;;;;4191825;28;20224;-73
2023/06/01 09:26:27;;;;;;;17.17;11.07;;;18.00;99.90;;;;;;4192408;28;20206;-74
2023/06/01 09:28:29;;;;;;;19.00;11.37;;;18.10;99.90;;;;;;4193538;28;20649;-75
2023/06/01 09:30:42;;;;;;;16.30;10.10;;;18.20;99.90;;;;;;4193033;28;20215;-75
2023/06/01 09:32:47;;;;;;;15.87;10.83;;;18.30;99.90;;;;;;4194290;28;20885;-72
2023/06/01 09:34:49;;;;;;;15.93;9.83;;;18.40;99.90;;;;;;4192513;28;20606;-73
2023/06/01 09:36:53;;;;;;;14.17;8.90;;;18.50;99.90;;;;;;4194298;28;20221;-73
2023/06/01 09:39:02;;;;;;;13.90;9.00;;;18.60;99.90;;;;;;4195802;28;20291;-75
2023/06/01 09:41:05;;;;;;;14.00;9.10;;;18.60;99.90;;;;;;4193945;28;20198;-76
2023/06/01 09:43:21;;;;;;;14.80;7.97;;;18.70;99.90;;;;;;4194451;28;20216;-75
2023/06/01 09:45:23;;;;;;;14.63;8.73;;;18.70;99.90;;;;;;4193509;28;20628;-72
2023/06/01 09:47:29;;;;;;;13.57;7.60;;;18.80;99.90;;;;;;4195649;28;20666;-72
2023/06/01 09:49:33;;;;;;;15.40;8.07;;;18.80;99.90;;;;;;4193865;28;20227;-72
2023/06/01 09:51:35;;;;;;;13.83;7.67;;;18.90;99.90;;;;;;4195188;28;20225;-73
2023/06/01 09:53:44;;;;;;;15.43;8.70;;;18.90;99.90;;;;;;4195386;28;20260;-73
2023/06/01 09:55:59;;;;;;;12.10;7.67;;;18.80;99.90;;;;;;4193585;28;20214;-72
2023/06/01 09:58:22;;;;;;;14.10;7.63;;;18.90;99.90;;;;;;4195581;28;20314;-74
2023/06/01 10:00:25;;;;;;;16.70;7.57;;;18.80;99.90;;;;;;4194569;28;20302;-73
2023/06/01 10:02:27;;;;;;;11.27;6.47;;;18.80;99.90;;;;;;4195427;28;20237;-75
2023/06/01 10:04:30;;;;;;;10.40;6.53;;;18.80;99.90;;;;;;4194946;28;20238;-73
2023/06/01 10:06:36;;;;;;;10.20;6.63;;;18.90;99.90;;;;;;4193727;28;20251;-74
2023/06/01 10:08:39;;;;;;;10.87;6.97;;;19.00;99.90;;;;;;4195240;28;20610;-72
2023/06/01 10:10:44;;;;;;;13.27;7.30;;;19.10;99.90;;;;;;4194828;28;20218;-72
2023/06/01 10:12:46;;;;;;;14.43;8.13;;;19.20;99.90;;;;;;4194993;28;20590;-72
2023/06/01 10:14:49;;;;;;;12.00;7.30;;;19.30;99.90;;;;;;4195932;28;20263;-73
2023/06/01 10:16:56;;;;;;;11.70;7.77;;;19.40;99.90;;;;;;4192699;28;20637;-72
2023/06/01 10:18:59;;;;;;;12.20;7.47;;;19.50;99.90;;;;;;4194779;28;20213;-72
2023/06/01 10:21:06;;;;;;;11.23;7.00;;;19.60;99.90;;;;;;4197345;28;20220;-75
2023/06/01 10:23:08;;;;;;;11.70;7.47;;;19.70;99.90;;;;;;4194103;28;20649;-73
2023/06/01 10:25:13;;;;;;;12.87;8.00;;;19.80;99.90;;;;;;4196112;28;20583;-72
2023/06/01 10:27:21;;;;;;;12.70;8.50;;;19.90;99.90;;;;;;4196720;28;20237;-73
2023/06/01 10:29:24;;;;;;;11.67;7.60;;;20.00;99.90;;;;;;4197055;28;20214;-74
2023/06/01 10:31:40;;;;;;;12.63;8.00;;;20.20;99.90;;;;;;4194672;28;20922;-76
2023/06/01 10:33:55;;;;;;;10.43;7.30;;;20.30;99.90;;;;;;4192335;28;20292;-73
2023/06/01 10:35:57;;;;;;;12.80;7.77;;;20.50;99.90;;;;;;4194498;28;20680;-72
2023/06/01 10:38:27;;;;;;;15.23;7.77;;;20.60;99.90;;;;;;4194604;28;20233;-72